Latest Weather Observations for Sydney Olympic Park

IDN60801

Issued at 4:53 pm EDT Thursday 28 January 2021 (issued every 10 minutes, with the page automatically refreshed every 10 minutes)

About weather observations | Map of weather stations | Latest weather observations for NSW | Other Formats
Station Details ID: 066212 Name: SYDNEY OLYMPIC PARK AWS (ARCHERY CENTRE) Lat: -33.83 Lon: 151.07 Height: 4.0 m
Data from the previous 72 hours. | See also: Recent months at Sydney Olympic Park
Date/Time
EDT
Temp
°C
App
Temp
°C
Dew
Point
°C
Rel
Hum
%
Delta-T
°C
Wind Press
QNH
hPa
Press
MSL
hPa
Rain since
9am
mm
Dir  Spd
km/h
Gust
km/h
Spd
kts
Gust
kts
28/04:44pm 20.8 20.8 18.0 84 1.7 SE 15 24 8 13 - - 0.6
28/04:30pm 20.4 20.4 18.2 87 1.4 SE 15 20 8 11 - - 0.6
28/04:00pm 20.6 20.1 17.8 84 1.7 ESE 17 30 9 16 - - 0.6
28/03:30pm 21.9 20.2 16.2 70 3.4 SE 20 32 11 17 - - 0.6
28/03:00pm 21.7 19.9 16.0 70 3.4 SE 20 33 11 18 - - 0.6
28/02:30pm 22.1 20.0 15.2 65 4.1 SE 20 33 11 18 - - 0.6
28/02:00pm 22.4 20.2 15.0 63 4.4 SSE 20 32 11 17 - - 0.6
28/01:30pm 21.9 19.7 14.8 64 4.2 SE 20 30 11 16 - - 0.6
28/01:00pm 22.0 20.0 15.6 67 3.8 SSE 20 30 11 16 - - 0.6
28/12:30pm 21.2 18.9 15.7 71 3.3 SE 22 33 12 18 - - 0.6
28/12:00pm 20.5 19.3 17.5 83 1.8 SE 20 28 11 15 - - 0.6
28/11:36am 19.4 19.5 18.4 94 0.6 SE 15 20 8 11 - - 0.6
28/11:30am 19.4 19.0 18.9 97 0.3 SSE 19 30 10 16 - - 0.6
28/11:00am 19.3 19.0 19.1 99 0.1 SSE 19 30 10 16 - - 0.6
28/10:37am 19.3 19.2 18.8 97 0.3 SE 17 24 9 13 - - 0.2
28/10:33am 19.4 19.6 18.6 95 0.5 SE 15 24 8 13 - - 0.2
28/10:30am 19.6 19.9 18.8 95 0.5 SSE 15 20 8 11 - - 0.2
28/10:19am 19.7 19.5 18.5 93 0.7 SE 17 26 9 14 - - 0.2
28/10:00am 19.7 18.9 18.0 90 1.0 SE 19 26 10 14 - - 0.2
28/09:30am 20.6 18.7 16.8 79 2.3 SE 22 33 12 18 - - 0.0
28/09:00am 21.0 20.1 16.8 77 2.6 SE 17 22 9 12 - - 7.8
28/08:30am 20.8 20.4 17.2 80 2.2 SE 15 26 8 14 - - 7.8
28/08:00am 20.5 20.1 17.1 81 2.1 SE 15 20 8 11 - - 7.8
28/07:30am 20.4 19.6 17.0 81 2.1 SE 17 24 9 13 - - 7.8
28/07:00am 20.2 18.9 16.8 81 2.1 SE 19 37 10 20 - - 7.8
28/06:30am 20.4 19.5 16.8 80 2.2 SSE 17 26 9 14 - - 7.8
28/06:00am 20.4 20.4 17.2 82 2.0 SSE 13 26 7 14 - - 7.8
28/05:30am 20.3 20.2 16.9 81 2.1 SSE 13 19 7 10 - - 7.8
28/05:00am 20.3 19.9 16.3 78 2.4 SSE 13 20 7 11 - - 7.8
28/04:57am 20.3 20.0 16.5 79 2.3 SSE 13 20 7 11 - - 7.8
28/04:35am 20.2 20.2 17.2 83 1.8 SSE 13 26 7 14 - - 7.8
28/04:30am 20.2 20.2 17.2 83 1.8 SSE 13 26 7 14 - - 7.8
28/04:00am 20.0 21.0 18.7 92 0.8 SSE 11 17 6 9 - - 7.8
28/03:30am 19.6 21.7 19.4 99 0.1 SSE 7 15 4 8 - - 7.8
28/03:00am 19.5 20.8 19.3 99 0.1 SSE 11 20 6 11 - - 7.8
28/02:54am 19.4 20.7 19.4 100 0.0 SSE 11 20 6 11 - - 7.8
28/02:38am 19.3 19.8 19.3 100 0.0 SSE 15 22 8 12 - - 7.8
28/02:30am 19.4 19.5 19.2 99 0.1 SSE 17 24 9 13 - - 7.8
28/02:20am 19.5 20.4 19.3 99 0.1 SSE 13 28 7 15 - - 7.8
28/02:04am 19.4 19.9 19.2 99 0.1 SSE 15 20 8 11 - - 7.8
28/02:00am 19.4 20.3 19.2 99 0.1 SSE 13 20 7 11 - - 7.8
28/01:30am 19.3 19.7 19.0 98 0.2 SE 15 24 8 13 - - 7.8
28/01:00am 19.1 19.8 18.8 98 0.2 SE 13 20 7 11 - - 7.6
28/12:30am 19.3 20.2 18.5 95 0.5 SSE 11 20 6 11 - - 7.6
28/12:00am 19.4 19.0 18.9 97 0.3 SSE 19 30 10 16 - - 7.6
 
Date/Time
EDT
Temp
°C
App
Temp
°C
Dew
Point
°C
Rel
Hum
%
Delta-T
°C
Wind Press
QNH
hPa
Press
MSL
hPa
Rain since
9am
mm
Dir  Spd
km/h
Gust
km/h
Spd
kts
Gust
kts
27/11:30pm 19.4 20.3 19.2 99 0.1 SE 13 20 7 11 - - 7.6
27/11:00pm 19.2 20.8 19.2 100 0.0 SE 9 13 5 7 - - 7.4
27/10:30pm 19.1 19.8 18.9 99 0.1 SE 13 20 7 11 - - 7.4
27/10:00pm 19.2 19.7 19.2 100 0.0 SE 15 22 8 12 - - 7.4
27/09:30pm 19.0 20.5 19.0 100 0.0 SE 9 11 5 6 - - 7.0
27/09:01pm 18.8 19.0 18.6 99 0.1 SE 15 22 8 12 - - 7.0
27/09:00pm 18.8 19.0 18.6 99 0.1 SE 15 22 8 12 - - 7.0
27/08:47pm 18.9 18.9 18.9 100 0.0 SE 17 26 9 14 - - 7.0
27/08:42pm 18.9 18.9 18.9 100 0.0 SSE 17 26 9 14 - - 6.8
27/08:30pm 18.9 19.3 18.9 100 0.0 SSE 15 24 8 13 - - 6.4
27/08:00pm 19.1 19.5 18.9 99 0.1 SE 15 28 8 15 - - 4.8
27/07:30pm 19.4 21.0 19.2 99 0.1 S 9 19 5 10 - - 2.4
27/07:12pm 19.6 20.4 19.1 97 0.3 S 13 20 7 11 - - 1.8
27/07:00pm 19.6 20.3 18.9 96 0.4 S 13 20 7 11 - - 1.8
27/06:30pm 19.9 20.9 18.6 92 0.8 S 11 24 6 13 - - 1.6
27/06:00pm 20.1 21.1 18.6 91 0.9 S 11 20 6 11 - - 1.4
27/05:30pm 20.3 20.9 18.6 90 1.1 S 13 22 7 12 - - 1.2
27/05:00pm 21.4 21.5 17.4 78 2.5 S 13 20 7 11 - - 0.0
27/04:30pm 21.6 20.4 17.6 78 2.5 S 20 32 11 17 - - 0.0
27/04:00pm 21.2 20.1 17.2 78 2.4 S 19 35 10 19 - - 0.0
27/03:30pm 21.3 20.7 17.5 79 2.3 S 17 30 9 16 - - 0.0
27/03:00pm 21.8 20.2 17.4 76 2.7 SSE 22 37 12 20 - - 0.0
27/02:30pm 21.8 20.6 17.4 76 2.7 S 20 33 11 18 - - 0.0
27/02:00pm 22.7 21.5 17.6 73 3.2 SSE 20 32 11 17 - - 0.0
27/01:30pm 22.3 21.4 17.7 75 2.9 S 19 30 10 16 - - 0.0
27/01:00pm 22.3 20.8 17.7 75 2.9 SSE 22 32 12 17 - - 0.0
27/12:30pm 22.4 22.1 18.2 77 2.6 SSE 17 28 9 15 - - 0.0
27/12:00pm 22.1 21.9 18.5 80 2.3 S 17 28 9 15 - - 0.0
27/11:30am 22.0 21.2 18.4 80 2.3 SSE 20 35 11 19 - - 0.0
27/11:00am 22.0 21.4 18.8 82 2.0 SSE 20 35 11 19 - - 0.0
27/10:30am 21.9 21.4 19.1 84 1.8 SSE 20 35 11 19 - - 0.0
27/10:00am 21.9 22.3 19.8 88 1.3 SSE 17 28 9 15 - - 0.0
27/09:30am 22.2 22.2 19.0 82 2.0 S 17 26 9 14 - - 0.0
27/09:00am 22.0 22.7 19.7 87 1.5 SSE 15 28 8 15 - - 0.0
27/08:30am 21.8 22.4 19.4 86 1.5 S 15 32 8 17 - - 0.0
27/08:00am 21.8 21.9 19.2 85 1.6 S 17 24 9 13 - - 0.0
27/07:30am 21.9 22.0 19.1 84 1.8 S 17 32 9 17 - - 0.0
27/07:00am 21.9 21.9 18.9 83 1.9 S 17 28 9 15 - - 0.0
27/06:30am 21.9 22.7 19.1 84 1.8 SSW 13 26 7 14 - - 0.0
27/06:00am 22.0 22.6 19.4 85 1.7 S 15 28 8 15 - - 0.0
27/05:30am 22.1 22.7 19.5 85 1.7 S 15 28 8 15 - - 0.0
27/05:00am 22.2 22.1 19.9 87 1.5 S 20 33 11 18 - - 0.0
27/04:30am 22.9 23.7 20.6 87 1.5 S 17 30 9 16 - - 0.0
27/04:00am 23.6 25.4 21.1 86 1.6 S 13 24 7 13 - - 0.0
27/03:30am 24.3 26.0 21.6 85 1.8 S 15 28 8 15 - - 0.0
27/03:00am 24.5 26.0 21.2 82 2.2 S 15 22 8 12 - - 0.0
27/02:30am 24.6 26.2 21.5 83 2.1 S 15 26 8 14 - - 0.0
27/02:00am 24.6 26.8 21.9 85 1.8 SSE 13 20 7 11 - - 0.0
27/01:30am 24.3 26.6 21.4 84 1.9 S 11 22 6 12 - - 0.0
27/01:00am 24.2 25.5 20.9 82 2.2 SE 15 22 8 12 - - 0.0
27/12:30am 24.1 25.3 21.4 85 1.8 SE 17 28 9 15 - - 0.0
27/12:00am 24.6 25.5 20.9 80 2.4 SE 17 24 9 13 - - 0.0
 
Date/Time
EDT
Temp
°C
App
Temp
°C
Dew
Point
°C
Rel
Hum
%
Delta-T
°C
Wind Press
QNH
hPa
Press
MSL
hPa
Rain since
9am
mm
Dir  Spd
km/h
Gust
km/h
Spd
kts
Gust
kts
26/11:30pm 24.8 25.3 20.1 75 3.0 SE 17 28 9 15 - - 0.0
26/11:00pm 25.4 26.0 19.5 70 3.8 SSE 15 24 8 13 - - 0.0
26/10:30pm 26.7 27.4 18.8 62 5.1 SSE 13 20 7 11 - - 0.0
26/10:00pm 28.8 29.0 18.6 54 6.6 S 15 30 8 16 - - 0.0
26/09:30pm 29.9 29.6 18.3 49 7.4 SSW 17 30 9 16 - - 0.0
26/09:00pm 29.3 31.5 19.6 56 6.3 S 7 9 4 5 - - 0.0
26/08:30pm 30.4 32.7 18.5 49 7.7 S 4 7 2 4 - - 0.0
26/08:00pm 31.4 32.9 18.0 44 8.6 ENE 7 13 4 7 - - 0.0
26/07:30pm 31.7 32.9 18.3 45 8.6 ENE 9 19 5 10 - - 0.0
26/07:00pm 32.4 33.4 17.8 41 9.4 ENE 9 15 5 8 - - 0.0
26/06:30pm 32.9 34.0 17.9 41 9.7 ENE 9 15 5 8 - - 0.0
26/06:00pm 33.3 33.4 17.5 39 10.1 E 13 19 7 10 - - 0.0
26/05:30pm 34.4 35.3 18.4 38 10.4 ESE 11 17 6 9 - - 0.0
26/05:00pm 35.3 35.1 17.5 34 11.5 ESE 15 24 8 13 - - 0.0
26/04:30pm 35.9 36.5 17.6 34 11.8 E 11 24 6 13 - - 0.0
26/04:00pm 38.5 39.0 15.0 25 14.8 NNW 6 17 3 9 - - 0.0
26/03:30pm 38.0 36.9 15.2 26 14.4 WNW 15 26 8 14 - - 0.0
26/03:00pm 38.7 38.1 15.7 25 14.6 NNW 13 24 7 13 - - 0.0
26/02:30pm 39.6 39.6 15.2 23 15.5 NW 9 30 5 16 - - 0.0
26/02:00pm 39.1 38.5 16.7 27 14.5 NW 15 28 8 15 - - 0.0
26/01:30pm 38.9 38.0 15.9 25 14.7 NW 15 26 8 14 - - 0.0
26/01:00pm 38.6 37.9 16.3 27 14.3 NW 15 26 8 14 - - 0.0
26/12:30pm 38.1 36.9 17.0 29 13.6 NNW 19 28 10 15 - - 0.0
26/12:00pm 37.1 35.9 16.1 29 13.4 N 17 26 9 14 - - 0.0
26/11:30am 36.6 35.5 17.2 31 12.5 NW 19 33 10 18 - - 0.0
26/11:00am 35.7 34.1 15.9 30 12.5 NW 19 33 10 18 - - 0.0
26/10:30am 35.2 34.5 17.4 34 11.5 NW 17 33 9 18 - - 0.0
26/10:00am 32.6 31.8 17.2 39 9.8 NW 17 30 9 16 - - 0.0
26/09:30am 31.7 31.5 16.8 40 9.4 NW 13 24 7 13 - - 0.0
26/09:00am 29.1 31.7 20.5 59 5.7 WNW 7 11 4 6 - - 0.0
26/08:30am 26.5 29.9 21.0 72 3.6 NNW 4 7 2 4 - - 0.0
26/08:00am 24.8 29.1 21.1 80 2.4 CALM 0 0 0 0 - - 0.0
26/07:30am 23.4 27.4 20.5 84 1.9 CALM 0 0 0 0 - - 0.0
26/07:00am 22.2 26.8 21.7 97 0.3 CALM 0 0 0 0 - - 0.0
26/06:30am 21.4 25.7 21.2 99 0.1 CALM 0 6 0 3 - - 0.0
26/06:00am 21.3 25.5 21.0 98 0.2 CALM 0 0 0 0 - - 0.0
26/05:30am 21.3 25.4 20.8 97 0.3 CALM 0 0 0 0 - - 0.0
26/05:00am 21.7 25.9 20.9 95 0.5 CALM 0 0 0 0 - - 0.0
26/04:30am 21.8 25.9 20.8 94 0.6 CALM 0 0 0 0 - - 0.0
26/04:00am 21.8 25.8 20.6 93 0.8 CALM 0 0 0 0 - - 0.0
26/03:30am 22.3 26.2 20.4 89 1.2 CALM 0 4 0 2 - - 0.0
26/03:00am 22.6 26.6 20.5 88 1.4 CALM 0 0 0 0 - - 0.0
26/02:30am 23.0 25.9 20.7 87 1.5 NNW 6 7 3 4 - - 0.0
26/02:00am 23.4 26.6 20.5 84 1.9 NNE 4 7 2 4 - - 0.0
26/01:30am 23.7 26.5 20.8 84 1.9 E 7 11 4 6 - - 0.0
26/01:00am 23.9 26.7 20.8 83 2.0 E 7 11 4 6 - - 0.0
26/12:30am 24.0 26.9 20.7 82 2.2 E 6 9 3 5 - - 0.0
26/12:00am 24.1 27.0 20.6 81 2.3 E 6 9 3 5 - - 0.0
 
Date/Time
EDT
Temp
°C
App
Temp
°C
Dew
Point
°C
Rel
Hum
%
Delta-T
°C
Wind Press
QNH
hPa
Press
MSL
hPa
Rain since
9am
mm
Dir  Spd
km/h
Gust
km/h
Spd
kts
Gust
kts
25/11:30pm 23.9 26.7 20.4 81 2.3 ESE 6 9 3 5 - - 0.0
25/11:00pm 24.0 27.3 19.9 78 2.6 SE 2 7 1 4 - - 0.0
25/10:30pm 24.8 27.4 20.1 75 3.0 E 6 13 3 7 - - 0.0
25/10:00pm 25.1 27.7 20.1 74 3.2 ENE 6 13 3 7 - - 0.0
25/09:30pm 25.4 27.3 19.8 71 3.6 ENE 9 15 5 8 - - 0.0
25/09:00pm 25.9 27.2 19.3 67 4.2 ENE 11 19 6 10 - - 0.0
25/08:30pm 26.4 27.0 18.5 62 5.0 E 13 20 7 11 - - 0.0
25/08:00pm 27.1 27.5 18.1 58 5.7 ENE 13 24 7 13 - - 0.0
25/07:30pm 28.0 27.5 17.8 54 6.5 NE 17 32 9 17 - - 0.0
25/07:00pm 29.3 29.4 17.5 49 7.5 NE 13 24 7 13 - - 0.0
25/06:30pm 30.1 30.1 17.2 46 8.2 ENE 13 22 7 12 - - 0.0
25/06:00pm 30.9 30.5 17.2 43 8.7 NE 15 24 8 13 - - 0.0
25/05:30pm 31.1 30.9 18.5 47 8.1 E 17 26 9 14 - - 0.0
25/05:00pm 31.5 30.8 17.4 43 9.0 E 17 26 9 14 - - 0.0

Other formats

Comma delimited format used in spreadsheet applications
http://www.bom.gov.au/fwo/IDN60801/IDN60801.95765.axf

JavaScript Object Notation format (JSON) in row-major order
http://www.bom.gov.au/fwo/IDN60801/IDN60801.95765.json

Data quality

Most of these data are generated automatically and are frequently updated. Quality checks on data are not normally performed. It is possible for incorrect values to appear. Refer to information at About Latest Weather Observations and please check the disclaimer before using these data.